Time;durP1;ratioP1;P1;durP2;ratioP2;P2;SDS_P1;SDS_P2;PMS_P1;PMS_P2;Temp;Humidity;BMP_temperature;BMP_pressure;BME280_temperature;BME280_humidity;BME280_pressure;Samples;Min_cycle;Max_cycle;Signal;HPM_P1;HPM_P2
2022/01/27 00:00:49;;;;;;;64.13;33.33;;;4.00;99.90;;;3.85;65.07;99303.69;5017683;28;20486;-83
2022/01/27 00:03:32;;;;;;;64.18;31.75;;;3.90;99.90;;;3.89;65.21;99292.31;5028192;28;20084;-83
2022/01/27 00:06:07;;;;;;;71.35;32.28;;;4.00;99.90;;;3.91;64.82;99300.94;5002550;28;20032;-83
2022/01/27 00:11:11;;;;;;;58.88;30.85;;;4.00;99.90;;;3.82;65.27;99322.91;5019895;28;20111;-87
2022/01/27 00:13:49;;;;;;;61.47;32.75;;;3.90;99.90;;;3.81;65.44;99321.25;5023728;28;20508;-88
2022/01/27 00:16:27;;;;;;;57.38;32.63;;;3.90;99.90;;;3.76;65.08;99339.84;5021037;28;20159;-87
2022/01/27 00:18:54;;;;;;;63.25;34.05;;;3.80;99.90;;;3.69;65.62;99342.59;5010356;28;20102;-88
2022/01/27 00:21:25;;;;;;;69.15;35.03;;;3.80;99.90;;;3.69;65.85;99348.78;5035124;28;20068;-88
2022/01/27 00:23:52;;;;;;;71.72;37.67;;;3.80;99.90;;;3.70;65.82;99353.09;5024681;28;20178;-88
2022/01/27 00:26:18;;;;;;;69.60;37.88;;;3.80;99.90;;;3.70;66.36;99347.72;4999390;28;20405;-88
2022/01/27 00:28:45;;;;;;;70.93;39.42;;;3.70;99.90;;;3.69;66.11;99340.72;5035263;28;20495;-88
2022/01/27 00:31:11;;;;;;;78.35;37.85;;;3.70;99.90;;;3.72;66.04;99339.47;5020366;28;20041;-88
2022/01/27 00:33:37;;;;;;;68.28;34.83;;;3.80;99.90;;;3.76;65.36;99326.44;5018222;28;20048;-88
2022/01/27 00:36:04;;;;;;;65.35;34.53;;;3.80;99.90;;;3.77;65.81;99333.47;5001463;28;20045;-88
2022/01/27 00:38:30;;;;;;;71.10;33.58;;;3.80;99.90;;;3.74;65.44;99329.34;5013733;28;20073;-88
2022/01/27 00:40:56;;;;;;;70.30;32.50;;;3.80;99.90;;;3.74;66.06;99336.56;4998357;28;20037;-88
2022/01/27 00:43:23;;;;;;;71.45;36.33;;;3.70;99.90;;;3.74;65.93;99329.34;5009169;28;20121;-87
2022/01/27 00:45:49;;;;;;;63.38;32.88;;;3.80;99.90;;;3.72;65.99;99330.63;4998639;28;20063;-87
2022/01/27 00:48:17;;;;;;;67.82;35.20;;;3.80;99.90;;;3.80;65.88;99335.72;4999738;28;20539;-87
2022/01/27 00:50:48;;;;;;;69.28;34.00;;;3.80;99.90;;;3.86;66.11;99326.78;5022004;28;20465;-87
2022/01/27 01:01:31;;;;;;;64.88;31.85;;;3.90;99.90;;;3.79;65.32;99342.94;5024519;28;20056;-87
2022/01/27 01:04:00;;;;;;;;;;;3.80;99.90;;;3.78;65.67;99343.97;5003018;28;20082;-87
2022/01/27 01:06:38;;;;;;;63.90;29.02;;;3.80;99.90;;;3.70;65.12;99328.13;5022438;28;20482;-87
2022/01/27 01:19:53;;;;;;;60.83;29.52;;;3.70;99.90;;;3.70;66.55;99325.44;5022312;28;20111;-87
2022/01/27 01:32:59;;;;;;;46.30;26.23;;;3.70;99.90;;;3.76;65.27;99321.06;5022930;28;20612;-87
2022/01/27 01:35:35;;;;;;;53.47;26.70;;;3.70;99.90;;;3.71;65.12;99319.03;5008791;28;20044;-87
2022/01/27 01:38:02;;;;;;;52.95;28.60;;;3.70;99.90;;;3.72;65.51;99323.38;5027010;28;20132;-87
2022/01/27 01:40:28;;;;;;;53.72;29.55;;;3.80;99.90;;;3.80;65.80;99322.28;5015780;28;20045;-87
2022/01/27 01:42:54;;;;;;;69.82;31.52;;;3.70;99.90;;;3.85;65.67;99320.59;5005464;28;20119;-87
2022/01/27 01:45:20;;;;;;;61.22;28.25;;;3.80;99.90;;;3.86;65.57;99316.03;5024596;28;20041;-86
2022/01/27 01:47:47;;;;;;;52.72;28.02;;;3.80;99.90;;;3.79;64.87;99309.91;5021131;28;20085;-87
2022/01/27 01:50:14;;;;;;;59.85;29.38;;;3.90;99.90;;;3.67;65.76;99310.59;5038780;28;20174;-87
2022/01/27 01:52:40;;;;;;;51.92;27.27;;;3.80;99.90;;;3.71;66.13;99302.94;5017591;28;20104;-87
2022/01/27 01:55:07;;;;;;;55.00;28.75;;;3.70;99.90;;;3.71;66.15;99292.19;5009701;28;20044;-87
2022/01/27 01:57:33;;;;;;;63.58;32.47;;;3.80;99.90;;;3.74;66.22;99289.09;5003569;28;20048;-86
2022/01/27 01:59:59;;;;;;;60.72;33.90;;;3.70;99.90;;;3.73;65.96;99283.94;5005143;28;20111;-87
2022/01/27 02:02:25;;;;;;;58.35;30.77;;;3.70;99.90;;;3.73;66.27;99284.75;5011217;28;20481;-87
2022/01/27 02:04:52;;;;;;;56.97;29.98;;;3.70;99.90;;;3.71;66.24;99289.53;5025354;28;20037;-87
2022/01/27 02:07:46;;;;;;;54.00;27.70;;;3.70;99.90;;;3.65;66.01;99276.97;5053255;28;20128;-87
2022/01/27 02:10:34;;;;;;;57.45;30.13;;;3.80;99.90;;;3.68;66.05;99282.72;5025723;28;20034;-87
2022/01/27 02:18:30;;;;;;;48.95;25.83;;;3.70;99.90;;;3.71;65.77;99278.78;5025754;28;20067;-87
2022/01/27 02:20:56;;;;;;;45.58;24.40;;;3.70;99.90;;;3.73;65.36;99289.31;5006145;28;20060;-86
2022/01/27 02:23:22;;;;;;;50.25;25.88;;;3.70;99.90;;;3.68;65.29;99276.53;4999064;28;20123;-87
2022/01/27 02:25:48;;;;;;;43.15;25.38;;;3.80;99.90;;;3.65;65.33;99283.16;5021117;28;20116;-86
2022/01/27 02:28:14;;;;;;;49.53;26.55;;;3.70;99.90;;;3.64;65.55;99273.50;5036822;28;20132;-86
2022/01/27 02:30:41;;;;;;;43.92;23.45;;;3.70;99.90;;;3.66;65.83;99271.41;5041028;28;20087;-87
2022/01/27 02:33:07;;;;;;;43.17;22.85;;;3.70;99.90;;;3.72;65.53;99258.97;5003403;28;20037;-87
2022/01/27 02:35:34;;;;;;;45.47;23.42;;;3.70;99.90;;;3.70;64.86;99258.38;5005183;28;20075;-87
2022/01/27 02:38:00;;;;;;;50.53;25.17;;;3.70;99.90;;;3.68;64.82;99261.25;5020811;28;20037;-87
2022/01/27 02:40:26;;;;;;;42.63;22.13;;;3.70;99.90;;;3.70;65.28;99261.06;5004783;28;20068;-87
2022/01/27 02:42:52;;;;;;;47.15;24.02;;;3.70;99.90;;;3.69;64.96;99265.59;5053629;28;20063;-87
2022/01/27 02:46:00;;;;;;;46.53;25.13;;;3.70;99.90;;;3.69;64.73;99260.25;5037207;28;20041;-87
2022/01/27 02:48:26;;;;;;;52.00;26.00;;;3.70;99.90;;;3.68;65.31;99252.41;5050393;28;20437;-87
2022/01/27 02:50:52;;;;;;;53.80;27.95;;;3.70;99.90;;;3.72;64.87;99263.53;5005655;28;20498;-87
2022/01/27 02:53:18;;;;;;;45.47;25.73;;;3.70;99.90;;;3.73;65.20;99262.47;5021952;28;20041;-87
2022/01/27 02:55:44;;;;;;;63.67;31.23;;;3.70;99.90;;;3.68;64.74;99271.19;5024289;28;20117;-87
2022/01/27 02:58:10;;;;;;;59.65;31.35;;;3.70;99.90;;;3.67;65.04;99277.59;5009685;28;20064;-87
2022/01/27 03:00:36;;;;;;;56.53;31.40;;;3.70;99.90;;;3.66;65.26;99273.25;5055963;28;20041;-87
2022/01/27 03:03:02;;;;;;;54.50;29.92;;;3.70;99.90;;;3.64;65.06;99265.44;5002404;28;20032;-87
2022/01/27 03:05:28;;;;;;;51.83;30.80;;;3.70;99.90;;;3.64;64.46;99260.06;5018588;28;20042;-87
2022/01/27 03:07:54;;;;;;;66.05;35.35;;;3.70;99.90;;;3.73;64.72;99260.63;5035385;28;20495;-87
2022/01/27 03:10:20;;;;;;;75.32;36.95;;;3.70;99.90;;;3.73;63.86;99259.81;5002684;28;20171;-87
2022/01/27 03:12:47;;;;;;;69.95;33.67;;;3.70;99.90;;;3.65;64.69;99245.59;5004542;28;20049;-87
2022/01/27 03:15:16;;;;;;;54.83;31.58;;;3.80;99.90;;;3.66;65.16;99241.91;5007233;28;20045;-87
2022/01/27 03:17:42;;;;;;;56.70;32.17;;;3.70;99.90;;;3.64;65.36;99243.16;5016223;28;20057;-87
2022/01/27 03:20:09;;;;;;;67.47;32.25;;;3.70;99.90;;;3.67;65.35;99242.72;5007369;28;20068;-87
2022/01/27 03:22:35;;;;;;;62.20;31.00;;;3.70;99.90;;;3.62;65.76;99240.69;5038566;28;20064;-87
2022/01/27 03:25:02;;;;;;;55.00;29.58;;;3.70;99.90;;;3.61;65.98;99239.06;5003880;28;20163;-87
2022/01/27 03:27:28;;;;;;;53.22;29.98;;;3.70;99.90;;;3.61;65.95;99239.06;5003574;28;20057;-87
2022/01/27 03:29:54;;;;;;;50.67;28.30;;;3.60;99.90;;;3.58;65.63;99252.88;5026461;28;20041;-87
2022/01/27 03:32:20;;;;;;;51.97;27.90;;;3.60;99.90;;;3.53;66.00;99246.53;5038563;28;20858;-86
2022/01/27 03:34:47;;;;;;;52.08;28.60;;;3.60;99.90;;;3.54;66.33;99248.19;5024141;28;20116;-87
2022/01/27 03:37:12;;;;;;;54.25;27.38;;;3.60;99.90;;;3.50;66.53;99231.69;5004476;28;20530;-87
2022/01/27 03:39:40;;;;;;;51.90;27.70;;;3.60;99.90;;;3.46;66.47;99233.16;5003434;28;20944;-86
2022/01/27 03:42:07;;;;;;;43.50;24.88;;;3.50;99.90;;;3.46;66.19;99222.41;5031255;28;20419;-87
2022/01/27 03:44:33;;;;;;;42.47;24.25;;;3.50;99.90;;;3.46;66.54;99225.94;5010842;28;20087;-87
2022/01/27 03:46:59;;;;;;;44.65;24.35;;;3.50;99.90;;;3.44;66.39;99224.53;5001669;28;20108;-87
2022/01/27 03:49:25;;;;;;;43.05;25.75;;;3.50;99.90;;;3.45;66.63;99223.47;5005645;28;20037;-87
2022/01/27 03:51:51;;;;;;;50.10;25.13;;;3.50;99.90;;;3.40;66.64;99232.16;5012114;28;20033;-87
2022/01/27 03:54:18;;;;;;;45.22;24.55;;;3.50;99.90;;;3.44;66.89;99235.25;5004723;28;20119;-86
2022/01/27 03:56:44;;;;;;;45.38;24.60;;;3.40;99.90;;;3.45;67.00;99235.00;5004847;28;20399;-86
2022/01/27 03:59:10;;;;;;;41.30;24.73;;;3.40;99.90;;;3.42;67.00;99226.59;5036332;28;20041;-87
2022/01/27 04:01:36;;;;;;;48.58;27.98;;;3.40;99.90;;;3.36;66.61;99232.78;5004875;28;20033;-86
2022/01/27 04:04:03;;;;;;;43.40;24.75;;;3.40;99.90;;;3.33;67.18;99235.91;5021593;28;20480;-86
2022/01/27 04:06:34;;;;;;;40.17;22.00;;;3.40;99.90;;;3.31;67.33;99238.00;5021067;28;20521;-86
2022/01/27 04:09:02;;;;;;;37.60;22.20;;;3.40;99.90;;;3.27;67.54;99229.56;5005094;28;20044;-86
2022/01/27 04:11:28;;;;;;;41.95;22.10;;;3.40;99.90;;;3.30;67.59;99231.00;5035610;28;20496;-86
2022/01/27 04:13:54;;;;;;;44.20;24.15;;;3.30;99.90;;;3.35;67.43;99225.81;5019311;28;20043;-86
2022/01/27 04:16:20;;;;;;;43.92;23.27;;;3.30;99.90;;;3.33;67.50;99227.88;5023661;28;20047;-86
2022/01/27 04:18:46;;;;;;;42.50;23.13;;;3.40;99.90;;;3.29;67.80;99221.31;5019124;28;20032;-86
2022/01/27 04:21:13;;;;;;;35.08;20.85;;;3.30;99.90;;;3.29;67.77;99213.28;5020282;28;20052;-87
2022/01/27 04:23:39;;;;;;;40.30;24.70;;;3.40;99.90;;;3.28;67.50;99216.97;5019113;28;20452;-87
2022/01/27 04:26:06;;;;;;;35.50;20.83;;;3.30;99.90;;;3.29;67.23;99221.31;4997326;28;20068;-86
2022/01/27 04:28:33;;;;;;;35.50;20.38;;;3.30;99.90;;;3.34;67.38;99221.50;5019876;28;20041;-86
2022/01/27 04:31:02;;;;;;;35.78;21.13;;;3.30;99.90;;;3.30;67.87;99204.19;5006796;28;20132;-87
2022/01/27 04:33:31;;;;;;;33.30;19.05;;;3.40;99.90;;;3.28;67.80;99206.25;5027341;28;20476;-87
2022/01/27 04:36:00;;;;;;;33.13;19.88;;;3.40;99.90;;;3.31;67.49;99203.13;5020555;28;20385;-86
2022/01/27 04:38:33;;;;;;;34.15;20.35;;;3.30;99.90;;;3.31;67.17;99198.63;5015474;28;20047;-86
2022/01/27 04:41:13;;;;;;;32.90;18.55;;;3.40;99.90;;;3.28;67.31;99201.69;5008463;28;20037;-87
2022/01/27 04:43:51;;;;;;;32.10;19.38;;;3.30;99.90;;;3.32;67.31;99202.94;5008272;28;20045;-87
2022/01/27 04:46:35;;;;;;;41.50;20.00;;;3.30;99.90;;;3.26;67.30;99199.25;5048307;28;20059;-87
2022/01/27 04:49:03;;;;;;;32.50;18.83;;;3.30;99.90;;;3.31;67.15;99190.56;5004397;28;20045;-86
2022/01/27 04:51:30;;;;;;;31.60;19.15;;;3.30;99.90;;;3.33;67.42;99196.50;5003058;28;20041;-87
2022/01/27 04:56:26;;;;;;;41.05;21.08;;;3.30;99.90;;;3.33;67.81;99195.69;5046118;28;20055;-86
2022/01/27 04:58:58;;;;;;;47.50;24.98;;;3.40;99.90;;;3.36;67.38;99203.31;5019905;28;20041;-86
2022/01/27 05:01:31;;;;;;;37.75;23.08;;;3.40;99.90;;;3.30;67.74;99202.31;5017786;28;20829;-86
2022/01/27 05:04:03;;;;;;;38.53;22.08;;;3.40;99.90;;;3.30;67.34;99194.28;5028155;28;20037;-86
2022/01/27 05:06:29;;;;;;;46.13;24.35;;;3.40;99.90;;;3.26;67.02;99188.53;5005888;28;20029;-85
2022/01/27 05:08:55;;;;;;;44.60;24.38;;;3.40;99.90;;;3.31;67.20;99190.56;5022566;28;20047;-85
2022/01/27 05:11:27;;;;;;;42.88;23.70;;;3.40;99.90;;;3.38;66.87;99199.38;5027349;28;20040;-85
2022/01/27 05:13:58;;;;;;;;;;;3.40;99.90;;;3.30;67.35;99190.78;5012894;28;20044;-85
2022/01/27 05:16:24;;;;;;;35.80;18.98;;;3.40;99.90;;;3.30;66.56;99194.28;5030686;28;19925;-85
2022/01/27 05:18:50;;;;;;;35.80;21.63;;;3.40;99.90;;;3.34;66.87;99197.34;5009751;28;20037;-85
2022/01/27 05:21:16;;;;;;;51.88;23.35;;;3.40;99.90;;;3.36;66.49;99189.91;4996690;28;20080;-85
2022/01/27 05:23:42;;;;;;;44.50;22.85;;;3.40;99.90;;;3.33;66.95;99187.66;4996200;28;20459;-85
2022/01/27 05:26:08;;;;;;;35.05;20.35;;;3.40;99.90;;;3.43;66.78;99182.63;5008240;28;20083;-85
2022/01/27 05:28:34;;;;;;;41.75;22.25;;;3.40;99.90;;;3.46;66.85;99185.72;4998532;28;20069;-84
2022/01/27 05:31:01;;;;;;;37.42;21.35;;;3.40;99.90;;;3.57;66.22;99189.53;5012537;28;20047;-83
2022/01/27 05:33:27;;;;;;;40.80;21.65;;;3.50;99.90;;;3.56;66.21;99187.91;5009958;28;20045;-83
2022/01/27 05:35:53;;;;;;;36.38;20.98;;;3.50;99.90;;;3.60;66.25;99188.28;5011191;28;20048;-83
2022/01/27 05:38:19;;;;;;;39.63;21.75;;;3.60;99.90;;;3.56;66.25;99177.19;4999425;28;20048;-83
2022/01/27 05:40:45;;;;;;;44.92;23.42;;;3.60;99.90;;;3.56;66.21;99162.94;5010752;28;20454;-83
2022/01/27 05:43:11;;;;;;;43.13;22.60;;;3.60;99.90;;;3.54;66.37;99157.81;5009926;28;20054;-83
2022/01/27 05:45:37;;;;;;;37.28;21.52;;;3.60;99.90;;;3.59;66.20;99157.97;4999863;28;20068;-83
2022/01/27 05:48:04;;;;;;;37.17;21.38;;;3.60;99.90;;;3.53;65.65;99153.47;5002101;28;20055;-83
2022/01/27 05:50:30;;;;;;;39.42;23.33;;;3.60;99.90;;;3.54;66.18;99155.13;5015908;28;20124;-83
2022/01/27 05:52:56;;;;;;;36.42;22.85;;;3.60;99.90;;;3.54;65.60;99155.13;5013264;28;20449;-83
2022/01/27 05:55:22;;;;;;;39.15;22.10;;;3.60;99.90;;;3.55;65.77;99156.75;5012507;28;20396;-83
2022/01/27 05:57:48;;;;;;;37.63;21.00;;;3.60;99.90;;;3.59;65.41;99149.91;4998421;28;20036;-83
2022/01/27 06:00:14;;;;;;;44.28;26.35;;;3.60;99.90;;;3.60;65.40;99142.69;5018052;28;20048;-83
2022/01/27 06:02:40;;;;;;;39.78;22.77;;;3.60;99.90;;;3.65;65.00;99137.47;5012722;28;20040;-83
2022/01/27 06:05:07;;;;;;;39.38;22.48;;;3.70;99.90;;;3.60;65.11;99138.13;5017945;28;20037;-83
2022/01/27 06:07:33;;;;;;;42.83;24.50;;;3.70;99.90;;;3.54;64.75;99143.56;5033150;28;20407;-83
2022/01/27 06:09:58;;;;;;;41.70;23.65;;;3.70;99.90;;;3.50;65.15;99129.75;5015883;28;20128;-83
2022/01/27 06:12:24;;;;;;;40.33;23.73;;;3.60;99.90;;;3.45;65.15;99126.91;5017493;28;20112;-83
2022/01/27 06:14:50;;;;;;;45.47;24.70;;;3.60;99.90;;;3.52;65.38;99127.69;5017667;28;20039;-83
2022/01/27 06:17:16;;;;;;;49.05;24.85;;;3.60;99.90;;;3.59;64.95;99119.59;5021648;28;20076;-83
2022/01/27 06:19:46;;;;;;;41.85;23.27;;;3.60;99.90;;;3.55;64.96;99099.59;5018044;28;20048;-83
2022/01/27 06:22:13;;;;;;;50.33;23.35;;;3.60;99.90;;;3.54;65.01;99111.38;5019764;28;20148;-83
2022/01/27 06:24:42;;;;;;;38.63;22.52;;;3.60;99.90;;;3.58;64.83;99105.34;5001891;28;20040;-83
2022/01/27 06:27:09;;;;;;;41.33;22.42;;;3.60;99.90;;;3.55;64.23;99115.69;5044627;28;20100;-83
2022/01/27 06:29:35;;;;;;;38.45;22.60;;;3.60;99.90;;;3.54;65.00;99106.84;5001081;28;20115;-83
2022/01/27 06:32:02;;;;;;;40.45;22.30;;;3.60;99.90;;;3.48;65.18;99121.09;5032183;28;20041;-83
2022/01/27 06:34:28;;;;;;;43.53;22.75;;;3.50;99.90;;;3.51;64.90;99131.41;5002833;28;20404;-83
2022/01/27 06:36:54;;;;;;;42.40;22.80;;;3.50;99.90;;;3.48;65.02;99129.16;5000809;28;20044;-83
2022/01/27 06:39:20;;;;;;;43.38;22.77;;;3.50;99.90;;;3.45;64.95;99122.38;5017809;28;20498;-83
2022/01/27 06:41:47;;;;;;;47.80;24.85;;;3.50;99.90;;;3.44;64.98;99112.69;5028116;28;20404;-83
2022/01/27 06:44:13;;;;;;;43.40;23.83;;;3.50;99.90;;;3.46;65.22;99099.03;5018168;28;20087;-83
2022/01/27 06:46:39;;;;;;;48.53;24.27;;;3.50;99.90;;;3.55;64.78;99087.00;5017219;28;20504;-83
2022/01/27 06:49:05;;;;;;;45.05;23.98;;;3.60;99.90;;;3.61;64.52;99088.81;4999078;28;20036;-83
2022/01/27 06:51:31;;;;;;;45.70;23.55;;;3.60;99.90;;;3.64;64.62;99092.94;5003887;28;20087;-83
2022/01/27 06:53:58;;;;;;;39.28;22.10;;;3.70;99.90;;;3.70;63.89;99095.53;5013298;28;20124;-83
2022/01/27 06:56:25;;;;;;;45.00;22.70;;;3.70;99.90;;;3.70;63.56;99090.16;5029584;28;20090;-83
2022/01/27 06:58:51;;;;;;;41.75;20.30;;;3.70;99.90;;;3.70;63.77;99076.75;4999713;28;20446;-83
2022/01/27 07:01:17;;;;;;;42.13;21.75;;;3.80;99.90;;;3.76;63.42;99072.34;5033841;28;20065;-83
2022/01/27 07:03:43;;;;;;;44.55;22.30;;;3.80;99.90;;;3.85;63.22;99073.72;5000051;28;20512;-83
2022/01/27 07:06:11;;;;;;;45.00;21.52;;;3.90;99.90;;;3.93;62.91;99077.97;5004195;28;20242;-83
2022/01/27 07:08:36;;;;;;;47.20;22.50;;;4.00;99.90;;;3.98;62.89;99080.78;5034435;28;20048;-83
2022/01/27 07:11:02;;;;;;;45.97;21.15;;;4.10;99.90;;;4.00;62.55;99084.06;5014573;28;20082;-83
2022/01/27 07:13:28;;;;;;;41.75;20.17;;;4.10;99.90;;;4.05;62.79;99084.22;4999753;28;20115;-83
2022/01/27 07:15:56;;;;;;;42.35;21.92;;;4.20;99.90;;;4.08;62.18;99086.44;5033546;28;20498;-83
2022/01/27 07:18:26;;;;;;;41.78;21.33;;;4.20;99.90;;;4.19;62.21;99087.56;5016728;28;20474;-83
2022/01/27 07:20:52;;;;;;;39.42;19.45;;;4.30;99.90;;;4.20;61.95;99094.59;5032928;28;20431;-83
2022/01/27 07:23:18;;;;;;;43.60;20.85;;;4.30;99.90;;;4.18;62.25;99088.63;5034651;28;20381;-83
2022/01/27 07:25:44;;;;;;;42.38;21.48;;;4.30;99.90;;;4.26;61.53;99080.25;5003507;28;20047;-83
2022/01/27 07:28:10;;;;;;;41.33;22.10;;;4.30;99.90;;;4.30;61.59;99077.91;5031425;28;20061;-83
2022/01/27 07:30:36;;;;;;;40.50;22.35;;;4.30;99.90;;;4.24;61.33;99074.28;5001876;28;20044;-83
2022/01/27 07:33:02;;;;;;;48.20;24.65;;;4.40;99.90;;;4.26;61.70;99074.06;5033179;28;20037;-83
2022/01/27 07:35:28;;;;;;;43.30;23.48;;;4.40;99.90;;;4.30;61.39;99083.28;5017246;28;20102;-83
2022/01/27 07:37:55;;;;;;;37.67;21.45;;;4.40;99.90;;;4.34;61.13;99076.44;5003969;28;20115;-83
2022/01/27 07:40:20;;;;;;;51.53;23.98;;;4.40;99.90;;;4.35;61.00;99067.31;5026738;28;20499;-83
2022/01/27 07:42:47;;;;;;;41.15;23.73;;;4.50;99.90;;;4.37;61.22;99059.03;5037393;28;20611;-83
2022/01/27 07:45:13;;;;;;;39.22;21.80;;;4.50;99.90;;;4.46;60.81;99053.13;5016675;28;20123;-83
2022/01/27 07:47:39;;;;;;;35.42;19.35;;;4.50;99.90;;;4.57;60.23;99056.91;5002093;28;20116;-83
2022/01/27 07:50:06;;;;;;;38.35;21.30;;;4.70;99.90;;;4.73;60.06;99058.97;4999697;28;20093;-83
2022/01/27 07:52:32;;;;;;;39.67;20.75;;;4.80;99.90;;;4.94;59.86;99052.22;5019291;28;20067;-83
2022/01/27 07:54:58;;;;;;;30.02;18.75;;;5.00;99.90;;;5.12;59.03;99047.81;5031329;28;20484;-83
2022/01/27 07:57:24;;;;;;;39.42;18.98;;;5.20;99.90;;;5.20;58.79;99029.47;4999950;28;20041;-83
2022/01/27 07:59:52;;;;;;;31.90;17.65;;;5.40;99.90;;;5.27;58.49;99032.06;5016085;28;20064;-83
2022/01/27 08:02:18;;;;;;;34.03;19.25;;;5.50;99.90;;;5.39;57.14;99035.56;5033918;28;20040;-83
2022/01/27 08:04:46;;;;;;;29.80;16.85;;;5.60;99.90;;;5.48;57.31;99033.34;5019323;28;20048;-83
2022/01/27 08:07:13;;;;;;;33.53;16.98;;;5.70;99.90;;;5.64;56.85;99031.78;5016847;28;20052;-83
2022/01/27 08:09:39;;;;;;;36.28;18.05;;;5.80;99.90;;;5.93;55.95;99024.63;5015888;28;20469;-83
2022/01/27 08:12:05;;;;;;;36.72;19.27;;;6.00;99.90;;;6.13;55.47;99024.25;5015975;28;20124;-83
2022/01/27 08:14:31;;;;;;;36.95;20.48;;;6.30;99.90;;;6.22;55.64;99022.78;5015672;28;20412;-83
2022/01/27 08:16:57;;;;;;;35.03;19.45;;;6.50;99.90;;;6.25;55.37;99013.41;5015027;28;20124;-84
2022/01/27 08:19:23;;;;;;;35.50;20.02;;;6.60;99.90;;;6.24;55.13;99004.53;4998824;28;20120;-84
2022/01/27 08:21:49;;;;;;;34.65;19.27;;;6.60;99.90;;;6.21;55.49;98998.81;4999975;28;20040;-83
2022/01/27 08:24:15;;;;;;;29.42;16.35;;;6.50;99.90;;;6.29;55.16;98996.53;4997670;28;20098;-83
2022/01/27 08:26:45;;;;;;;28.77;16.15;;;6.60;99.90;;;6.32;54.25;98992.53;4999135;28;20136;-84
2022/01/27 08:29:25;;;;;;;29.25;16.75;;;6.60;99.90;;;6.37;53.89;98997.22;5028458;28;20378;-83
2022/01/27 08:32:02;;;;;;;29.92;17.38;;;6.60;99.90;;;6.43;54.29;98980.06;5005521;28;20039;-83
2022/01/27 08:34:37;;;;;;;31.40;16.85;;;6.70;99.90;;;6.38;54.54;98978.09;5017797;28;20041;-84
2022/01/27 08:37:17;;;;;;;27.90;16.88;;;6.70;99.90;;;6.51;54.61;98976.97;5031826;28;20430;-83
2022/01/27 08:39:43;;;;;;;28.02;16.80;;;6.80;99.90;;;6.63;54.52;98983.13;5001823;28;20099;-83
2022/01/27 08:42:09;;;;;;;26.48;15.38;;;6.80;99.90;;;6.72;53.94;98987.06;5014841;28;20507;-83
2022/01/27 08:44:36;;;;;;;23.45;14.10;;;6.90;99.90;;;6.82;53.51;98988.28;5000561;28;20041;-84
2022/01/27 08:47:03;;;;;;;26.75;15.25;;;7.10;99.90;;;7.03;53.03;98995.66;5019541;28;20064;-84
2022/01/27 08:49:29;;;;;;;26.30;14.00;;;7.30;99.90;;;7.17;52.29;98993.44;5011707;28;20069;-84
2022/01/27 08:51:55;;;;;;;26.75;16.13;;;7.50;99.90;;;7.41;52.18;98990.56;5013375;28;20067;-83
2022/01/27 08:54:21;;;;;;;25.42;15.65;;;7.70;99.90;;;7.84;51.42;98997.88;4999754;28;20045;-84
2022/01/27 08:56:47;;;;;;;31.17;15.55;;;8.00;99.90;;;8.05;50.71;99001.66;4997918;28;20136;-84
2022/01/27 08:59:14;;;;;;;24.80;15.07;;;8.30;99.90;;;8.30;48.49;98998.44;5011297;28;20120;-83
2022/01/27 09:01:40;;;;;;;29.00;16.38;;;8.70;99.90;;;8.40;48.50;98993.16;5015082;28;20637;-84
2022/01/27 09:04:07;;;;;;;26.33;15.40;;;8.90;99.90;;;8.29;49.14;98985.97;5021309;28;20033;-84
2022/01/27 09:06:33;;;;;;;28.33;17.13;;;8.90;99.90;;;8.51;48.38;98988.66;4999064;28;20045;-84
2022/01/27 09:09:00;;;;;;;26.60;16.23;;;9.00;99.90;;;8.48;48.41;98989.19;4999719;28;20041;-83
2022/01/27 09:11:29;;;;;;;27.42;14.95;;;9.10;99.90;;;8.43;47.78;98973.72;5015351;28;20095;-83
2022/01/27 09:13:55;;;;;;;26.55;14.55;;;9.10;99.50;;;8.12;47.60;98980.66;5017015;28;20461;-83
2022/01/27 09:16:26;;;;;;;29.33;14.25;;;9.00;98.50;;;7.90;48.86;98979.84;5008684;28;20102;-84
2022/01/27 09:18:53;;;;;;;24.73;14.88;;;8.70;99.40;;;7.93;48.53;98982.84;5030978;28;20116;-84
2022/01/27 09:21:23;;;;;;;28.08;14.82;;;8.50;99.40;;;8.02;49.72;98975.97;5033556;28;20118;-84
2022/01/27 09:23:51;;;;;;;26.42;14.10;;;8.60;99.80;;;7.96;48.62;98968.88;5017078;28;20059;-83
2022/01/27 09:27:18;;;;;;;21.55;13.77;;;8.50;99.20;;;7.83;48.85;98971.94;5023174;28;20570;-83
2022/01/27 09:29:12;;;;;;;28.40;14.73;;;8.50;99.10;;;7.76;49.09;98971.28;5020247;28;20090;-83
2022/01/27 09:31:39;;;;;;;25.30;13.65;;;8.40;99.40;;;7.67;49.12;98962.03;5001122;28;20123;-83
2022/01/27 09:34:05;;;;;;;25.17;13.40;;;8.30;99.10;;;7.56;50.31;98959.19;5000537;28;20043;-83
2022/01/27 09:36:31;;;;;;;22.73;13.43;;;8.20;99.40;;;7.51;50.23;98953.72;5019959;28;20051;-83
2022/01/27 09:38:57;;;;;;;28.45;14.38;;;8.10;99.50;;;7.46;50.58;98950.97;5002464;28;20399;-83
2022/01/27 09:41:24;;;;;;;31.65;15.98;;;8.00;99.90;;;7.44;49.54;98938.78;5004388;28;20404;-83
2022/01/27 09:43:53;;;;;;;28.15;16.08;;;8.00;99.50;;;7.48;50.09;98943.44;5033122;28;20041;-83
2022/01/27 09:46:21;;;;;;;28.30;14.60;;;8.00;99.90;;;7.58;49.83;98950.81;5019470;28;20501;-84
2022/01/27 09:48:48;;;;;;;27.52;15.02;;;8.00;99.90;;;7.73;49.40;98939.41;5017799;28;20076;-84
2022/01/27 09:51:38;;;;;;;26.85;14.13;;;8.10;99.80;;;7.79;48.87;98931.13;5021698;28;20045;-83
2022/01/27 09:54:05;;;;;;;25.20;14.98;;;8.30;99.20;;;7.76;49.24;98920.00;5037412;28;20508;-83
2022/01/27 09:56:31;;;;;;;24.25;13.02;;;8.30;99.10;;;7.76;48.69;98893.81;5020775;28;20155;-83
2022/01/27 09:58:57;;;;;;;24.80;12.50;;;8.30;98.60;;;7.61;49.43;98915.25;5003420;28;20052;-83
2022/01/27 10:01:23;;;;;;;26.58;12.55;;;8.20;98.60;;;7.43;49.68;98902.03;5007509;28;20576;-83
2022/01/27 10:04:03;;;;;;;24.02;14.25;;;8.10;98.60;;;7.24;49.55;98904.22;5018380;28;20033;-83
2022/01/27 10:06:31;;;;;;;24.47;13.63;;;7.90;98.70;;;7.29;50.07;98896.22;5049547;28;20132;-83
2022/01/27 10:09:25;;;;;;;26.73;13.27;;;7.90;99.20;;;7.27;50.51;98890.25;5030026;28;20048;-83
2022/01/27 10:11:51;;;;;;;26.42;11.55;;;7.80;99.50;;;7.40;49.51;98892.56;5019336;28;20041;-83
2022/01/27 10:14:35;;;;;;;25.00;14.05;;;7.90;99.10;;;7.40;49.55;98884.47;5017108;28;20102;-83
2022/01/27 10:17:06;;;;;;;28.33;14.82;;;7.90;98.80;;;7.41;49.24;98871.81;5021075;28;20122;-83
2022/01/27 10:19:35;;;;;;;20.45;11.75;;;8.00;98.80;;;7.44;49.07;98877.50;5023204;28;20409;-83
2022/01/27 10:22:13;;;;;;;30.02;13.43;;;8.10;98.60;;;7.35;48.96;98862.81;5032368;28;20037;-83
2022/01/27 10:24:39;;;;;;;27.35;12.77;;;8.00;98.10;;;7.54;49.14;98860.63;5018766;28;20041;-83
2022/01/27 10:32:53;;;;;;;;;;;8.20;98.00;;;7.60;48.72;98821.81;5022817;28;20476;-83
2022/01/27 10:35:24;;;;;;;20.33;11.13;;;8.20;97.90;;;7.56;47.91;98837.72;5051441;28;19925;-83
2022/01/27 10:38:09;;;;;;;21.53;10.30;;;8.30;97.20;;;7.48;47.88;98834.63;5033487;28;20113;-83
2022/01/27 10:40:36;;;;;;;17.05;9.20;;;8.10;97.00;;;7.49;48.21;98845.19;5031021;28;20045;-83
2022/01/27 10:43:22;;;;;;;19.40;11.18;;;8.00;97.20;;;7.57;47.91;98831.22;5034507;28;20119;-83
2022/01/27 10:46:25;;;;;;;18.30;10.23;;;8.10;97.30;;;7.56;47.06;98810.72;5053017;28;20037;-83
2022/01/27 10:49:08;;;;;;;16.92;9.73;;;8.10;96.50;;;7.59;47.46;98817.50;5049599;28;20520;-83
2022/01/27 10:51:44;;;;;;;20.90;10.00;;;8.10;96.70;;;7.60;47.13;98811.81;5035234;28;20048;-83
2022/01/27 10:54:20;;;;;;;18.13;9.85;;;8.10;96.40;;;7.69;47.68;98814.91;5021029;28;20388;-83
2022/01/27 10:56:47;;;;;;;17.98;9.50;;;8.10;96.70;;;7.65;47.22;98837.25;5008222;28;20431;-83
2022/01/27 10:59:17;;;;;;;17.65;9.15;;;8.20;96.20;;;7.67;47.04;98835.13;5017909;28;20140;-83
2022/01/27 11:01:44;;;;;;;22.58;11.13;;;8.20;96.30;;;7.71;46.06;98812.78;5008199;28;20455;-83
2022/01/27 11:04:12;;;;;;;19.30;10.75;;;8.30;96.10;;;7.67;47.12;98821.63;5017642;28;20042;-83
2022/01/27 11:06:58;;;;;;;25.33;11.18;;;8.20;96.10;;;7.58;46.76;98823.94;4998268;28;20037;-83
2022/01/27 11:09:25;;;;;;;18.48;9.95;;;8.20;95.50;;;7.48;47.12;98792.28;5018136;28;20044;-83
2022/01/27 11:11:56;;;;;;;21.08;11.00;;;8.10;95.60;;;7.44;46.67;98801.13;5017775;28;20129;-83